Ana Sayfa
METAR-TAF:

METAR-TAF

Havaalanları :

Victoria Falls Havalimanı

Victoria Şelalesi, Zimbabve

Enlem: 18-06S, Boylam: 025-51E, yükseklik: 1061 m

Güncel hava durumu gözlemi

Rapor saat 12:00 UTC de 8 saat ve 37 dakika önce yapıldı.
Rüzgar doğudan 7 kt, kuzeydoğu ve güneydoğu arasında değişken
Sıcaklık 34°C
Nem 19%
Basınç 1014 hPa
Görüş mesafesi 10 km veya daha fazla
1500 m altında bulut yok ve kümülonimbus yok

METAR: FVFA 251200Z 08007KT 040V130 CAVOK 34/07 Q1014 NOSIG

Saat: 22:37 (20:37 UTC)


TAF: eksik

4.000'den fazla havaalanı için hava durumu gözlemleri ve tahminleri (METAR ve TAF raporları).

Kullanılabilir istasyonlar harita üzerinde sarı ve kırmızı noktalarla gösterilir.

İstasyonun adını görmek için fareyi noktanın üzerinde gezdirin.

Sonrasında hava gözlem ve tahminlerini görmek için tıklayın.

Haritayı değiştirmek için: yaklaştırmak için siyah artı işaretli yeşil düğmeye ve uzaklaştırmak için de eksi işaretli düğmeye hızla tıklayın; bitişik haritalar için yeşil okları kullanın.


METAR-TAF: